Hardwick, Vermont
Current Conditions -  °F | °C
As of 2:27 PM on Tuesday 21 Oct 2014 (Local Time) from KMVL Reporting Station
Light Rain Light Rain  
Wind Chill: 48°   Ceiling: 3800
Heat Index: 48°   Visibility: 6mi
Dew Point: 45°   Wind: 3mph
Humidity: 89%   Direction: 350°N
Pressure: 30.01"   Gusts: NA
Location:  44.5°N, 72.37°W
Report Text: KMVL 211827Z AUTO 35003KT 6SM -RA BR SCT018 BKN038 OVC048 09/07 A3001 RMK AO2 P0002 T00890072
Loading
Personal Weather Stations






























Interactive Weather Map New forecast layout! Learn more

10-Day Weather Forecast

Advertisements
Track Severe Weather on mobile